sensor_id;sensor_type;location;lat;lon;timestamp;pressure;altitude;pressure_sealevel;temperature;humidity
7668;BME280;3876;42.204;24.686;2023-02-02T00:01:12;99542.59;;;4.55;76.37
7668;BME280;3876;42.204;24.686;2023-02-02T00:03:39;99544.31;;;4.48;77.00
7668;BME280;3876;42.204;24.686;2023-02-02T00:06:06;99545.22;;;4.24;77.63
7668;BME280;3876;42.204;24.686;2023-02-02T00:08:33;99533.41;;;4.11;78.29
7668;BME280;3876;42.204;24.686;2023-02-02T00:11:02;99531.72;;;4.04;78.80
7668;BME280;3876;42.204;24.686;2023-02-02T00:13:29;99525.00;;;4.06;79.29
7668;BME280;3876;42.204;24.686;2023-02-02T00:15:55;99524.97;;;4.09;79.32
7668;BME280;3876;42.204;24.686;2023-02-02T00:18:22;99527.50;;;4.15;79.71
7668;BME280;3876;42.204;24.686;2023-02-02T00:20:49;99524.94;;;4.18;79.47
7668;BME280;3876;42.204;24.686;2023-02-02T00:23:17;99524.06;;;4.24;79.07
7668;BME280;3876;42.204;24.686;2023-02-02T00:25:43;99531.69;;;4.26;78.72
7668;BME280;3876;42.204;24.686;2023-02-02T00:28:11;99535.91;;;4.27;78.74
7668;BME280;3876;42.204;24.686;2023-02-02T00:30:40;99540.97;;;4.31;78.40
7668;BME280;3876;42.204;24.686;2023-02-02T00:33:07;99535.06;;;4.32;78.32
7668;BME280;3876;42.204;24.686;2023-02-02T00:35:34;99531.66;;;4.33;78.31
7668;BME280;3876;42.204;24.686;2023-02-02T00:38:01;99535.03;;;4.40;77.81
7668;BME280;3876;42.204;24.686;2023-02-02T00:40:27;99535.03;;;4.40;77.79
7668;BME280;3876;42.204;24.686;2023-02-02T00:42:54;99533.31;;;4.43;77.87
7668;BME280;3876;42.204;24.686;2023-02-02T00:45:22;99529.94;;;4.46;78.05
7668;BME280;3876;42.204;24.686;2023-02-02T00:47:49;99535.84;;;4.51;77.83
7668;BME280;3876;42.204;24.686;2023-02-02T00:50:17;99518.06;;;4.51;77.70
7668;BME280;3876;42.204;24.686;2023-02-02T00:52:44;99512.97;;;4.57;77.55
7668;BME280;3876;42.204;24.686;2023-02-02T00:55:13;99493.53;;;4.51;77.53
7668;BME280;3876;42.204;24.686;2023-02-02T00:57:40;99501.09;;;4.60;76.76
7668;BME280;3876;42.204;24.686;2023-02-02T01:00:12;99504.50;;;4.61;76.53
7668;BME280;3876;42.204;24.686;2023-02-02T01:02:40;99511.25;;;4.65;76.21
7668;BME280;3876;42.204;24.686;2023-02-02T01:05:08;99516.31;;;4.68;76.34
7668;BME280;3876;42.204;24.686;2023-02-02T01:07:36;99515.47;;;4.66;76.86
7668;BME280;3876;42.204;24.686;2023-02-02T01:10:03;99512.94;;;4.63;77.46
7668;BME280;3876;42.204;24.686;2023-02-02T01:12:30;99522.25;;;4.64;77.85
7668;BME280;3876;42.204;24.686;2023-02-02T01:14:57;99520.59;;;4.58;77.93
7668;BME280;3876;42.204;24.686;2023-02-02T01:17:24;99531.59;;;4.53;77.59
7668;BME280;3876;42.204;24.686;2023-02-02T01:19:52;99536.72;;;4.41;78.26
7668;BME280;3876;42.204;24.686;2023-02-02T01:22:19;99535.91;;;4.39;78.47
7668;BME280;3876;42.204;24.686;2023-02-02T01:24:45;99546.06;;;4.28;78.09
7668;BME280;3876;42.204;24.686;2023-02-02T01:27:12;99542.69;;;4.29;77.79
7668;BME280;3876;42.204;24.686;2023-02-02T01:29:39;99537.63;;;4.29;77.66
7668;BME280;3876;42.204;24.686;2023-02-02T01:32:06;99539.28;;;4.32;77.06
7668;BME280;3876;42.204;24.686;2023-02-02T01:34:33;99546.88;;;4.33;76.63
7668;BME280;3876;42.204;24.686;2023-02-02T01:37:01;99538.47;;;4.33;76.25
7668;BME280;3876;42.204;24.686;2023-02-02T01:39:28;99530.84;;;4.36;75.66
7668;BME280;3876;42.204;24.686;2023-02-02T01:41:55;99525.72;;;4.40;75.71
7668;BME280;3876;42.204;24.686;2023-02-02T01:47:34;99519.84;;;4.31;77.16
7668;BME280;3876;42.204;24.686;2023-02-02T01:50:03;99531.69;;;4.29;77.31
7668;BME280;3876;42.204;24.686;2023-02-02T01:52:33;99535.06;;;4.31;77.91
7668;BME280;3876;42.204;24.686;2023-02-02T01:55:02;99523.22;;;4.27;77.79
7668;BME280;3876;42.204;24.686;2023-02-02T01:57:36;99535.06;;;4.28;77.33
7668;BME280;3876;42.204;24.686;2023-02-02T02:00:07;99535.06;;;4.31;77.45
7668;BME280;3876;42.204;24.686;2023-02-02T02:02:35;99536.75;;;4.35;77.91
7668;BME280;3876;42.204;24.686;2023-02-02T02:05:04;99540.09;;;4.40;77.56
7668;BME280;3876;42.204;24.686;2023-02-02T02:07:33;99529.97;;;4.37;77.58
7668;BME280;3876;42.204;24.686;2023-02-02T02:10:00;99541.78;;;4.44;77.29
7668;BME280;3876;42.204;24.686;2023-02-02T02:12:28;99544.31;;;4.47;77.22
7668;BME280;3876;42.204;24.686;2023-02-02T02:14:55;99537.53;;;4.52;77.59
7668;BME280;3876;42.204;24.686;2023-02-02T02:17:51;99539.22;;;4.53;77.66
7668;BME280;3876;42.204;24.686;2023-02-02T02:27:20;99530.84;;;4.36;78.64
7668;BME280;3876;42.204;24.686;2023-02-02T02:30:16;99524.94;;;4.24;79.39
7668;BME280;3876;42.204;24.686;2023-02-02T02:32:49;99521.53;;;4.24;79.63
7668;BME280;3876;42.204;24.686;2023-02-02T02:35:23;99528.28;;;4.27;79.56
7668;BME280;3876;42.204;24.686;2023-02-02T02:38:00;99529.97;;;4.31;79.26
7668;BME280;3876;42.204;24.686;2023-02-02T02:40:34;99531.69;;;4.32;79.36
7668;BME280;3876;42.204;24.686;2023-02-02T02:43:05;99525.75;;;4.34;78.90
7668;BME280;3876;42.204;24.686;2023-02-02T02:45:34;99531.69;;;4.36;78.60
7668;BME280;3876;42.204;24.686;2023-02-02T02:48:04;99519.00;;;4.36;78.58
7668;BME280;3876;42.204;24.686;2023-02-02T02:50:31;99524.88;;;4.37;78.76
7668;BME280;3876;42.204;24.686;2023-02-02T02:53:02;99523.22;;;4.33;78.65
7668;BME280;3876;42.204;24.686;2023-02-02T02:55:38;99515.59;;;4.31;79.00
7668;BME280;3876;42.204;24.686;2023-02-02T02:58:12;99513.09;;;4.23;79.03
7668;BME280;3876;42.204;24.686;2023-02-02T03:00:50;99521.56;;;4.18;79.46
7668;BME280;3876;42.204;24.686;2023-02-02T03:03:32;99513.97;;;4.12;79.22
7668;BME280;3876;42.204;24.686;2023-02-02T03:06:06;99513.13;;;4.08;79.75
7668;BME280;3876;42.204;24.686;2023-02-02T03:08:39;99512.28;;;4.08;79.72
7668;BME280;3876;42.204;24.686;2023-02-02T03:11:07;99509.78;;;4.06;79.25
7668;BME280;3876;42.204;24.686;2023-02-02T03:13:36;99516.50;;;4.10;79.40
7668;BME280;3876;42.204;24.686;2023-02-02T03:16:03;99517.34;;;4.12;79.33
7668;BME280;3876;42.204;24.686;2023-02-02T03:18:32;99520.75;;;4.16;79.41
7668;BME280;3876;42.204;24.686;2023-02-02T03:20:59;99519.03;;;4.18;79.01
7668;BME280;3876;42.204;24.686;2023-02-02T03:23:26;99516.50;;;4.16;79.12
7668;BME280;3876;42.204;24.686;2023-02-02T03:25:54;99497.91;;;4.08;79.35
7668;BME280;3876;42.204;24.686;2023-02-02T03:28:22;99504.69;;;4.12;79.31
7668;BME280;3876;42.204;24.686;2023-02-02T03:30:50;99510.56;;;4.22;79.07
7668;BME280;3876;42.204;24.686;2023-02-02T03:33:17;99494.50;;;4.21;79.04
7668;BME280;3876;42.204;24.686;2023-02-02T03:35:46;99503.78;;;4.21;79.24
7668;BME280;3876;42.204;24.686;2023-02-02T03:38:13;99505.47;;;4.20;79.23
7668;BME280;3876;42.204;24.686;2023-02-02T03:40:39;99509.72;;;4.21;78.82
7668;BME280;3876;42.204;24.686;2023-02-02T03:43:06;99496.22;;;4.16;78.72
7668;BME280;3876;42.204;24.686;2023-02-02T03:45:33;99497.88;;;4.19;78.75
7668;BME280;3876;42.204;24.686;2023-02-02T03:48:03;99507.19;;;4.20;78.69
7668;BME280;3876;42.204;24.686;2023-02-02T03:50:30;99508.03;;;4.17;79.18
7668;BME280;3876;42.204;24.686;2023-02-02T03:52:58;99499.59;;;4.15;79.78
7668;BME280;3876;42.204;24.686;2023-02-02T03:55:25;99499.59;;;4.12;79.35
7668;BME280;3876;42.204;24.686;2023-02-02T03:57:52;99494.56;;;4.00;79.45
7668;BME280;3876;42.204;24.686;2023-02-02T04:00:19;99516.50;;;4.07;79.90
7668;BME280;3876;42.204;24.686;2023-02-02T04:02:46;99506.38;;;4.01;79.70
7668;BME280;3876;42.204;24.686;2023-02-02T04:05:13;99505.56;;;3.99;79.99
7668;BME280;3876;42.204;24.686;2023-02-02T04:07:40;99501.31;;;3.95;80.77
7668;BME280;3876;42.204;24.686;2023-02-02T04:10:09;99503.06;;;3.84;80.74
7668;BME280;3876;42.204;24.686;2023-02-02T04:12:36;99503.06;;;3.81;81.03
7668;BME280;3876;42.204;24.686;2023-02-02T04:15:04;99501.38;;;3.77;81.47
7668;BME280;3876;42.204;24.686;2023-02-02T04:17:30;99492.09;;;3.61;81.54
7668;BME280;3876;42.204;24.686;2023-02-02T04:19:57;99507.28;;;3.73;81.41
7668;BME280;3876;42.204;24.686;2023-02-02T04:22:24;99509.81;;;3.70;81.67
7668;BME280;3876;42.204;24.686;2023-02-02T04:24:51;99514.91;;;3.67;81.85
7668;BME280;3876;42.204;24.686;2023-02-02T04:27:20;99515.72;;;3.66;82.12
7668;BME280;3876;42.204;24.686;2023-02-02T04:29:46;99515.72;;;3.63;82.25
7668;BME280;3876;42.204;24.686;2023-02-02T04:32:14;99505.59;;;3.57;81.94
7668;BME280;3876;42.204;24.686;2023-02-02T04:34:41;99521.63;;;3.62;82.28
7668;BME280;3876;42.204;24.686;2023-02-02T04:37:10;99525.03;;;3.62;82.43
7668;BME280;3876;42.204;24.686;2023-02-02T04:39:36;99524.19;;;3.60;82.53
7668;BME280;3876;42.204;24.686;2023-02-02T04:42:03;99524.19;;;3.56;82.95
7668;BME280;3876;42.204;24.686;2023-02-02T04:44:32;99520.81;;;3.57;82.63
7668;BME280;3876;42.204;24.686;2023-02-02T04:46:58;99528.41;;;3.54;82.97
7668;BME280;3876;42.204;24.686;2023-02-02T04:49:25;99525.06;;;3.49;83.21
7668;BME280;3876;42.204;24.686;2023-02-02T04:51:52;99531.78;;;3.53;83.23
7668;BME280;3876;42.204;24.686;2023-02-02T04:54:18;99530.94;;;3.49;83.49
7668;BME280;3876;42.204;24.686;2023-02-02T04:56:45;99531.78;;;3.50;83.15
7668;BME280;3876;42.204;24.686;2023-02-02T04:59:12;99530.94;;;3.48;82.82
7668;BME280;3876;42.204;24.686;2023-02-02T05:01:40;99541.91;;;3.50;83.06
7668;BME280;3876;42.204;24.686;2023-02-02T05:04:07;99530.09;;;3.46;82.75
7668;BME280;3876;42.204;24.686;2023-02-02T05:06:34;99541.91;;;3.50;82.59
7668;BME280;3876;42.204;24.686;2023-02-02T05:09:01;99528.41;;;3.39;82.81
7668;BME280;3876;42.204;24.686;2023-02-02T05:11:27;99547.84;;;3.50;82.64
7668;BME280;3876;42.204;24.686;2023-02-02T05:13:55;99554.59;;;3.48;82.75
7668;BME280;3876;42.204;24.686;2023-02-02T05:16:22;99550.34;;;3.46;82.95
7668;BME280;3876;42.204;24.686;2023-02-02T05:18:52;99555.47;;;3.52;82.51
7668;BME280;3876;42.204;24.686;2023-02-02T05:21:19;99557.16;;;3.54;82.40
7668;BME280;3876;42.204;24.686;2023-02-02T05:23:47;99546.16;;;3.40;82.31
7668;BME280;3876;42.204;24.686;2023-02-02T05:26:16;99558.84;;;3.54;82.11
7668;BME280;3876;42.204;24.686;2023-02-02T05:28:43;99564.75;;;3.54;81.73
7668;BME280;3876;42.204;24.686;2023-02-02T05:31:10;99552.06;;;3.50;81.82
7668;BME280;3876;42.204;24.686;2023-02-02T05:33:37;99558.81;;;3.63;81.99
7668;BME280;3876;42.204;24.686;2023-02-02T05:36:06;99563.03;;;3.59;81.72
7668;BME280;3876;42.204;24.686;2023-02-02T05:38:33;99547.84;;;3.50;81.47
7668;BME280;3876;42.204;24.686;2023-02-02T05:41:00;99565.59;;;3.64;81.65
7668;BME280;3876;42.204;24.686;2023-02-02T05:43:28;99563.91;;;3.63;81.54
7668;BME280;3876;42.204;24.686;2023-02-02T05:45:55;99565.59;;;3.64;81.58
7668;BME280;3876;42.204;24.686;2023-02-02T05:48:22;99568.13;;;3.65;81.27
7668;BME280;3876;42.204;24.686;2023-02-02T05:50:58;99571.50;;;3.67;81.40
7668;BME280;3876;42.204;24.686;2023-02-02T05:53:28;99569.81;;;3.68;81.43
7668;BME280;3876;42.204;24.686;2023-02-02T05:55:55;99570.66;;;3.70;81.14
7668;BME280;3876;42.204;24.686;2023-02-02T05:58:22;99568.97;;;3.75;81.24
7668;BME280;3876;42.204;24.686;2023-02-02T06:00:50;99574.03;;;3.75;81.12
7668;BME280;3876;42.204;24.686;2023-02-02T06:03:17;99577.44;;;3.77;81.19
7668;BME280;3876;42.204;24.686;2023-02-02T06:05:44;99563.88;;;3.69;81.20
7668;BME280;3876;42.204;24.686;2023-02-02T06:08:11;99576.59;;;3.81;81.28
7668;BME280;3876;42.204;24.686;2023-02-02T06:10:39;99574.03;;;3.83;81.95
7668;BME280;3876;42.204;24.686;2023-02-02T06:13:06;99577.44;;;3.83;82.17
7668;BME280;3876;42.204;24.686;2023-02-02T06:15:33;99575.72;;;3.85;81.73
7668;BME280;3876;42.204;24.686;2023-02-02T06:18:00;99588.41;;;3.87;82.06
7668;BME280;3876;42.204;24.686;2023-02-02T06:20:28;99588.41;;;3.88;82.17
7668;BME280;3876;42.204;24.686;2023-02-02T06:22:54;99596.00;;;3.91;81.70
7668;BME280;3876;42.204;24.686;2023-02-02T06:25:22;99596.00;;;3.94;82.26
7668;BME280;3876;42.204;24.686;2023-02-02T06:27:54;99600.22;;;3.95;82.81
7668;BME280;3876;42.204;24.686;2023-02-02T06:30:21;99601.09;;;4.00;82.64
7668;BME280;3876;42.204;24.686;2023-02-02T06:32:47;99606.16;;;4.06;83.15
7668;BME280;3876;42.204;24.686;2023-02-02T06:35:14;99601.91;;;4.11;83.43
7668;BME280;3876;42.204;24.686;2023-02-02T06:37:41;99607.00;;;4.13;83.02
7668;BME280;3876;42.204;24.686;2023-02-02T06:40:09;99601.06;;;4.12;82.68
7668;BME280;3876;42.204;24.686;2023-02-02T06:42:36;99597.69;;;4.19;82.53
7668;BME280;3876;42.204;24.686;2023-02-02T06:45:05;99594.28;;;4.23;82.64
7668;BME280;3876;42.204;24.686;2023-02-02T06:47:32;99590.88;;;4.34;82.19
7668;BME280;3876;42.204;24.686;2023-02-02T06:49:58;99586.66;;;4.34;82.80
7668;BME280;3876;42.204;24.686;2023-02-02T06:52:25;99584.94;;;4.33;82.78
7668;BME280;3876;42.204;24.686;2023-02-02T06:54:52;99588.31;;;4.47;82.03
7668;BME280;3876;42.204;24.686;2023-02-02T06:57:19;99584.00;;;4.66;81.61
7668;BME280;3876;42.204;24.686;2023-02-02T06:59:46;99590.75;;;4.79;80.68
7668;BME280;3876;42.204;24.686;2023-02-02T07:02:14;99599.19;;;4.84;80.23
7668;BME280;3876;42.204;24.686;2023-02-02T07:04:41;99602.59;;;4.85;79.72
7668;BME280;3876;42.204;24.686;2023-02-02T07:07:07;99609.38;;;4.84;80.09
7668;BME280;3876;42.204;24.686;2023-02-02T07:09:35;99615.28;;;4.83;80.08
7668;BME280;3876;42.204;24.686;2023-02-02T07:12:01;99616.06;;;4.91;79.90
7668;BME280;3876;42.204;24.686;2023-02-02T07:14:28;99614.38;;;4.96;79.46
7668;BME280;3876;42.204;24.686;2023-02-02T07:16:55;99620.28;;;5.00;79.51
7668;BME280;3876;42.204;24.686;2023-02-02T07:19:23;99616.03;;;5.06;80.01
7668;BME280;3876;42.204;24.686;2023-02-02T07:21:50;99616.81;;;5.19;80.17
7668;BME280;3876;42.204;24.686;2023-02-02T07:24:17;99608.31;;;5.24;80.42
7668;BME280;3876;42.204;24.686;2023-02-02T07:26:43;99608.22;;;5.37;79.84
7668;BME280;3876;42.204;24.686;2023-02-02T07:29:11;99612.34;;;5.56;79.38
7668;BME280;3876;42.204;24.686;2023-02-02T07:31:39;99610.56;;;5.70;79.45
7668;BME280;3876;42.204;24.686;2023-02-02T07:34:06;99612.16;;;5.91;78.99
7668;BME280;3876;42.204;24.686;2023-02-02T07:36:34;99612.81;;;6.09;78.57
7668;BME280;3876;42.204;24.686;2023-02-02T07:39:02;99611.72;;;6.34;76.53
7668;BME280;3876;42.204;24.686;2023-02-02T07:41:30;99615.88;;;6.45;75.67
7668;BME280;3876;42.204;24.686;2023-02-02T07:43:56;99618.25;;;6.60;74.30
7668;BME280;3876;42.204;24.686;2023-02-02T07:46:23;99620.63;;;6.78;73.47
7668;BME280;3876;42.204;24.686;2023-02-02T07:48:52;99615.22;;;7.02;73.02
7668;BME280;3876;42.204;24.686;2023-02-02T07:51:20;99612.31;;;7.29;70.24
7668;BME280;3876;42.204;24.686;2023-02-02T07:53:49;99608.81;;;7.36;69.64
7668;BME280;3876;42.204;24.686;2023-02-02T07:56:17;99618.84;;;7.49;69.44
7668;BME280;3876;42.204;24.686;2023-02-02T07:58:44;99619.66;;;7.51;69.15
7668;BME280;3876;42.204;24.686;2023-02-02T08:01:12;99623.97;;;7.49;70.32
7668;BME280;3876;42.204;24.686;2023-02-02T08:03:40;99618.84;;;7.49;69.33
7668;BME280;3876;42.204;24.686;2023-02-02T08:06:10;99619.66;;;7.51;68.99
7668;BME280;3876;42.204;24.686;2023-02-02T08:08:38;99604.50;;;7.42;69.84
7668;BME280;3876;42.204;24.686;2023-02-02T08:11:09;99619.50;;;7.61;70.53
7668;BME280;3876;42.204;24.686;2023-02-02T08:13:36;99614.72;;;7.97;69.04
7668;BME280;3876;42.204;24.686;2023-02-02T08:16:03;99611.69;;;8.24;67.91
7668;BME280;3876;42.204;24.686;2023-02-02T08:18:31;99614.91;;;8.36;65.96
7668;BME280;3876;42.204;24.686;2023-02-02T08:20:58;99612.47;;;8.29;65.92
7668;BME280;3876;42.204;24.686;2023-02-02T08:23:25;99622.00;;;8.18;65.49
7668;BME280;3876;42.204;24.686;2023-02-02T08:25:52;99610.16;;;8.14;66.11
7668;BME280;3876;42.204;24.686;2023-02-02T08:28:20;99615.19;;;8.18;67.44
7668;BME280;3876;42.204;24.686;2023-02-02T08:30:47;99603.75;;;8.42;66.26
7668;BME280;3876;42.204;24.686;2023-02-02T08:33:14;99605.88;;;8.63;66.46
7668;BME280;3876;42.204;24.686;2023-02-02T08:35:41;99606.38;;;8.82;65.55
7668;BME280;3876;42.204;24.686;2023-02-02T08:38:08;99599.38;;;8.91;64.29
7668;BME280;3876;42.204;24.686;2023-02-02T08:40:35;99604.00;;;9.14;63.90
7668;BME280;3876;42.204;24.686;2023-02-02T08:43:02;99597.84;;;9.23;63.42
7668;BME280;3876;42.204;24.686;2023-02-02T08:45:30;99590.13;;;9.24;62.16
7668;BME280;3876;42.204;24.686;2023-02-02T08:47:57;99603.34;;;9.44;62.41
7668;BME280;3876;42.204;24.686;2023-02-02T08:50:24;99592.09;;;9.52;61.79
7668;BME280;3876;42.204;24.686;2023-02-02T08:52:50;99593.41;;;9.69;62.11
7668;BME280;3876;42.204;24.686;2023-02-02T08:55:17;99598.25;;;9.80;62.12
7668;BME280;3876;42.204;24.686;2023-02-02T08:57:44;99599.69;;;9.91;61.31
7668;BME280;3876;42.204;24.686;2023-02-02T09:00:12;99595.25;;;9.98;61.14
7668;BME280;3876;42.204;24.686;2023-02-02T09:02:40;99594.00;;;10.13;61.56
7668;BME280;3876;42.204;24.686;2023-02-02T09:05:07;99584.50;;;10.19;60.95
7668;BME280;3876;42.204;24.686;2023-02-02T09:07:34;99589.38;;;10.28;62.65
7668;BME280;3876;42.204;24.686;2023-02-02T09:10:01;99587.28;;;10.42;59.14
7668;BME280;3876;42.204;24.686;2023-02-02T09:12:28;99575.84;;;10.56;58.29
7668;BME280;3876;42.204;24.686;2023-02-02T09:14:54;99567.78;;;10.68;60.24
7668;BME280;3876;42.204;24.686;2023-02-02T09:17:21;99563.97;;;10.82;59.62
7668;BME280;3876;42.204;24.686;2023-02-02T09:19:49;99561.81;;;10.98;60.08
7668;BME280;3876;42.204;24.686;2023-02-02T09:22:16;99562.19;;;11.14;59.37
7668;BME280;3876;42.204;24.686;2023-02-02T09:24:43;99549.69;;;11.31;59.44
7668;BME280;3876;42.204;24.686;2023-02-02T09:27:10;99546.09;;;11.36;56.14
7668;BME280;3876;42.204;24.686;2023-02-02T09:29:36;99546.59;;;11.47;56.57
7668;BME280;3876;42.204;24.686;2023-02-02T09:32:03;99543.78;;;11.55;57.80
7668;BME280;3876;42.204;24.686;2023-02-02T09:34:30;99551.16;;;11.66;56.25
7668;BME280;3876;42.204;24.686;2023-02-02T09:36:58;99549.47;;;11.65;54.22
7668;BME280;3876;42.204;24.686;2023-02-02T09:39:25;99544.44;;;11.62;54.55
7668;BME280;3876;42.204;24.686;2023-02-02T09:42:25;99546.31;;;11.56;54.85
7668;BME280;3876;42.204;24.686;2023-02-02T09:44:59;99548.94;;;11.53;55.23
7668;BME280;3876;42.204;24.686;2023-02-02T09:47:45;99545.47;;;11.56;53.43
7668;BME280;3876;42.204;24.686;2023-02-02T09:50:21;99543.66;;;11.59;54.98
7668;BME280;3876;42.204;24.686;2023-02-02T09:53:02;99532.91;;;11.75;55.49
7668;BME280;3876;42.204;24.686;2023-02-02T09:55:32;99530.66;;;11.90;55.90
7668;BME280;3876;42.204;24.686;2023-02-02T09:58:05;99528.31;;;12.09;55.62
7668;BME280;3876;42.204;24.686;2023-02-02T10:00:36;99522.81;;;12.20;54.78
7668;BME280;3876;42.204;24.686;2023-02-02T10:03:10;99512.50;;;12.21;53.66
7668;BME280;3876;42.204;24.686;2023-02-02T10:05:44;99516.59;;;12.25;52.26
7668;BME280;3876;42.204;24.686;2023-02-02T10:08:19;99506.09;;;12.31;52.66
7668;BME280;3876;42.204;24.686;2023-02-02T10:10:49;99497.16;;;12.41;53.59
7668;BME280;3876;42.204;24.686;2023-02-02T10:13:20;99489.41;;;12.43;50.88
7668;BME280;3876;42.204;24.686;2023-02-02T10:15:52;99477.63;;;12.37;51.11
7668;BME280;3876;42.204;24.686;2023-02-02T10:18:37;99486.13;;;12.39;51.58
7668;BME280;3876;42.204;24.686;2023-02-02T10:21:11;99475.38;;;12.28;50.26
7668;BME280;3876;42.204;24.686;2023-02-02T10:23:42;99480.50;;;12.28;50.89
7668;BME280;3876;42.204;24.686;2023-02-02T10:26:15;99445.09;;;12.13;51.39
7668;BME280;3876;42.204;24.686;2023-02-02T10:28:53;99461.28;;;12.38;51.56
7668;BME280;3876;42.204;24.686;2023-02-02T10:31:37;99450.91;;;12.41;50.55
7668;BME280;3876;42.204;24.686;2023-02-02T10:34:14;99458.19;;;12.53;51.41
7668;BME280;3876;42.204;24.686;2023-02-02T10:36:52;99464.31;;;12.49;51.08
7668;BME280;3876;42.204;24.686;2023-02-02T10:39:31;99457.72;;;12.42;49.84
7668;BME280;3876;42.204;24.686;2023-02-02T10:42:08;99448.56;;;12.58;50.21
7668;BME280;3876;42.204;24.686;2023-02-02T10:44:43;99452.63;;;12.64;49.65
7668;BME280;3876;42.204;24.686;2023-02-02T10:47:17;99434.69;;;12.62;50.42
7668;BME280;3876;42.204;24.686;2023-02-02T10:49:45;99435.66;;;12.82;50.47
7668;BME280;3876;42.204;24.686;2023-02-02T10:52:19;99436.25;;;12.88;49.96
7668;BME280;3876;42.204;24.686;2023-02-02T10:54:55;99424.25;;;12.89;50.18
7668;BME280;3876;42.204;24.686;2023-02-02T10:57:33;99417.00;;;12.98;49.97
7668;BME280;3876;42.204;24.686;2023-02-02T11:00:13;99411.66;;;13.03;49.51
7668;BME280;3876;42.204;24.686;2023-02-02T11:02:41;99408.84;;;13.09;49.95
7668;BME280;3876;42.204;24.686;2023-02-02T11:05:12;99407.97;;;13.10;49.00
7668;BME280;3876;42.204;24.686;2023-02-02T11:07:59;99403.22;;;13.21;49.86
7668;BME280;3876;42.204;24.686;2023-02-02T11:10:27;99391.13;;;13.23;49.26
7668;BME280;3876;42.204;24.686;2023-02-02T11:12:55;99396.16;;;13.26;48.57
7668;BME280;3876;42.204;24.686;2023-02-02T11:15:27;99382.13;;;13.33;50.71
7668;BME280;3876;42.204;24.686;2023-02-02T11:17:54;99375.16;;;13.35;48.14
7668;BME280;3876;42.204;24.686;2023-02-02T11:20:23;99378.31;;;13.62;49.13
7668;BME280;3876;42.204;24.686;2023-02-02T11:22:59;99371.75;;;13.55;46.54
7668;BME280;3876;42.204;24.686;2023-02-02T11:25:29;99353.66;;;13.56;46.58
7668;BME280;3876;42.204;24.686;2023-02-02T11:28:00;99340.00;;;13.54;45.59
7668;BME280;3876;42.204;24.686;2023-02-02T11:30:31;99326.78;;;13.43;46.03
7668;BME280;3876;42.204;24.686;2023-02-02T11:33:19;99317.44;;;13.41;45.67
7668;BME280;3876;42.204;24.686;2023-02-02T11:35:52;99327.06;;;13.56;46.46
7668;BME280;3876;42.204;24.686;2023-02-02T11:38:19;99322.34;;;13.65;45.67
7668;BME280;3876;42.204;24.686;2023-02-02T11:40:54;99320.41;;;13.71;46.63
7668;BME280;3876;42.204;24.686;2023-02-02T11:43:25;99310.94;;;13.90;46.34
7668;BME280;3876;42.204;24.686;2023-02-02T11:45:55;99303.44;;;13.85;43.51
7668;BME280;3876;42.204;24.686;2023-02-02T11:48:27;99299.38;;;13.80;44.70
7668;BME280;3876;42.204;24.686;2023-02-02T11:50:56;99287.97;;;13.85;43.66
7668;BME280;3876;42.204;24.686;2023-02-02T11:53:25;99278.34;;;13.70;43.08
7668;BME280;3876;42.204;24.686;2023-02-02T11:55:54;99286.25;;;13.86;42.62
7668;BME280;3876;42.204;24.686;2023-02-02T11:58:24;99288.75;;;13.87;43.00
7668;BME280;3876;42.204;24.686;2023-02-02T12:00:55;99292.44;;;13.82;42.77
7668;BME280;3876;42.204;24.686;2023-02-02T12:03:28;99285.50;;;13.63;42.40
7668;BME280;3876;42.204;24.686;2023-02-02T12:05:55;99291.72;;;13.59;43.30
7668;BME280;3876;42.204;24.686;2023-02-02T12:08:22;99287.88;;;13.49;42.88
7668;BME280;3876;42.204;24.686;2023-02-02T12:10:57;99295.22;;;13.38;42.16
7668;BME280;3876;42.204;24.686;2023-02-02T12:13:34;99282.03;;;13.26;43.11
7668;BME280;3876;42.204;24.686;2023-02-02T12:16:12;99289.25;;;13.18;44.19
7668;BME280;3876;42.204;24.686;2023-02-02T12:18:52;99281.59;;;13.16;43.68
7668;BME280;3876;42.204;24.686;2023-02-02T12:21:30;99271.88;;;13.23;44.46
7668;BME280;3876;42.204;24.686;2023-02-02T12:24:13;99275.34;;;13.22;42.79
7668;BME280;3876;42.204;24.686;2023-02-02T12:26:53;99265.25;;;13.17;42.76
7668;BME280;3876;42.204;24.686;2023-02-02T12:29:36;99272.44;;;13.29;43.48
7668;BME280;3876;42.204;24.686;2023-02-02T12:32:18;99277.59;;;13.29;42.91
7668;BME280;3876;42.204;24.686;2023-02-02T12:34:57;99272.00;;;13.20;43.12
7668;BME280;3876;42.204;24.686;2023-02-02T12:37:38;99271.56;;;13.10;42.72
7668;BME280;3876;42.204;24.686;2023-02-02T12:40:24;99265.63;;;13.08;42.74
7668;BME280;3876;42.204;24.686;2023-02-02T12:43:09;99263.06;;;13.08;43.82
7668;BME280;3876;42.204;24.686;2023-02-02T12:45:50;99255.28;;;13.09;42.99
7668;BME280;3876;42.204;24.686;2023-02-02T12:48:38;99259.09;;;13.21;43.90
7668;BME280;3876;42.204;24.686;2023-02-02T12:51:21;99252.38;;;13.17;42.79
7668;BME280;3876;42.204;24.686;2023-02-02T12:54:09;99254.31;;;13.12;42.86
7668;BME280;3876;42.204;24.686;2023-02-02T12:56:48;99247.56;;;13.09;41.94
7668;BME280;3876;42.204;24.686;2023-02-02T12:59:30;99245.09;;;13.06;43.67
7668;BME280;3876;42.204;24.686;2023-02-02T13:02:04;99246.09;;;13.02;43.24
7668;BME280;3876;42.204;24.686;2023-02-02T13:04:49;99236.88;;;12.98;41.84
7668;BME280;3876;42.204;24.686;2023-02-02T13:07:38;99238.06;;;12.90;41.59
7668;BME280;3876;42.204;24.686;2023-02-02T13:10:22;99226.50;;;12.80;41.67
7668;BME280;3876;42.204;24.686;2023-02-02T13:12:54;99226.75;;;12.74;43.05
7668;BME280;3876;42.204;24.686;2023-02-02T13:15:34;99226.50;;;12.59;43.96
7668;BME280;3876;42.204;24.686;2023-02-02T13:18:05;99225.97;;;12.51;42.97
7668;BME280;3876;42.204;24.686;2023-02-02T13:20:37;99216.56;;;12.50;41.45
7668;BME280;3876;42.204;24.686;2023-02-02T13:23:09;99211.81;;;12.41;41.45
7668;BME280;3876;42.204;24.686;2023-02-02T13:25:43;99217.91;;;12.39;43.17
7668;BME280;3876;42.204;24.686;2023-02-02T13:28:19;99203.97;;;12.44;42.07
7668;BME280;3876;42.204;24.686;2023-02-02T13:30:57;99203.72;;;12.50;42.22
7668;BME280;3876;42.204;24.686;2023-02-02T13:33:28;99214.38;;;12.63;41.26
7668;BME280;3876;42.204;24.686;2023-02-02T13:36:00;99197.97;;;12.66;41.14
7668;BME280;3876;42.204;24.686;2023-02-02T13:38:29;99212.88;;;12.78;40.96
7668;BME280;3876;42.204;24.686;2023-02-02T13:40:59;99207.72;;;12.78;40.89
7668;BME280;3876;42.204;24.686;2023-02-02T13:43:36;99212.63;;;12.84;41.29